Time;durP1;ratioP1;P1;durP2;ratioP2;P2;SDS_P1;SDS_P2;PMS_P1;PMS_P2;Temp;Humidity;BMP_temperature;BMP_pressure;BME280_temperature;BME280_humidity;BME280_pressure;Samples;Min_cycle;Max_cycle;Signal;HPM_P1;HPM_P2
2023/08/12 00:00:19;;;;;;;2.65;2.20;;;23.10;71.00;;;;;;953921;148;27425;-73
2023/08/12 00:02:46;;;;;;;2.55;2.30;;;23.10;71.10;;;;;;953465;148;27358;-73
2023/08/12 00:05:12;;;;;;;2.30;2.20;;;23.10;71.10;;;;;;938948;150;27463;-74
2023/08/12 00:07:41;;;;;;;2.20;2.00;;;23.10;71.20;;;;;;937357;151;27486;-72
2023/08/12 00:10:05;;;;;;;3.25;2.35;;;23.10;71.30;;;;;;930489;150;27892;-73
2023/08/12 00:12:32;;;;;;;2.20;2.10;;;23.10;71.40;;;;;;929612;151;27453;-74
2023/08/12 00:14:59;;;;;;;4.08;2.12;;;23.10;71.50;;;;;;948727;148;27333;-75
2023/08/12 00:17:25;;;;;;;2.22;2.12;;;23.10;71.60;;;;;;949369;148;27358;-73
2023/08/12 00:19:52;;;;;;;2.17;2.05;;;23.10;71.70;;;;;;946927;148;27332;-72
2023/08/12 00:22:18;;;;;;;2.62;2.40;;;23.10;71.70;;;;;;946840;148;27366;-73
2023/08/12 00:24:45;;;;;;;2.25;2.05;;;23.10;71.90;;;;;;949067;148;27366;-73
2023/08/12 00:27:12;;;;;;;12.35;2.60;;;23.10;72.00;;;;;;954330;148;27356;-75
2023/08/12 00:29:38;;;;;;;2.83;2.40;;;23.10;72.20;;;;;;953199;148;27490;-72
2023/08/12 00:32:05;;;;;;;2.27;2.10;;;23.00;73.00;;;;;;954038;148;27391;-73
2023/08/12 00:34:31;;;;;;;2.90;2.40;;;23.00;72.30;;;;;;955033;148;27442;-74
2023/08/12 00:36:58;;;;;;;3.15;2.45;;;23.00;72.50;;;;;;951281;148;27429;-75
2023/08/12 00:39:24;;;;;;;2.40;2.25;;;23.00;72.50;;;;;;944746;151;27454;-74
2023/08/12 00:41:51;;;;;;;2.40;2.25;;;22.90;72.60;;;;;;954269;148;28475;-74
2023/08/12 00:44:18;;;;;;;2.27;2.08;;;22.90;72.80;;;;;;952366;148;27318;-73
2023/08/12 00:46:44;;;;;;;3.20;2.40;;;22.90;73.00;;;;;;932663;151;27374;-73
2023/08/12 00:49:11;;;;;;;3.55;2.83;;;22.90;73.10;;;;;;955002;148;27296;-74
2023/08/12 00:51:37;;;;;;;2.58;2.20;;;22.80;73.20;;;;;;949596;148;27975;-73
2023/08/12 00:54:04;;;;;;;2.77;2.58;;;22.80;73.40;;;;;;954154;148;27412;-72
2023/08/12 00:56:31;;;;;;;3.02;2.45;;;22.80;73.60;;;;;;954647;148;27381;-72
2023/08/12 00:58:57;;;;;;;2.37;2.17;;;22.70;73.80;;;;;;952561;148;27411;-74
2023/08/12 01:01:24;;;;;;;3.85;2.45;;;22.70;74.00;;;;;;952917;148;27448;-73
2023/08/12 01:03:50;;;;;;;4.15;2.40;;;22.70;74.20;;;;;;954414;148;27345;-72
2023/08/12 01:06:17;;;;;;;2.30;2.20;;;22.60;74.50;;;;;;951764;148;27243;-72
2023/08/12 01:08:44;;;;;;;2.67;2.33;;;22.60;74.90;;;;;;948836;148;27344;-74
2023/08/12 01:11:13;;;;;;;2.70;2.50;;;22.60;75.10;;;;;;952143;148;27324;-74
2023/08/12 01:13:46;;;;;;;2.20;2.10;;;22.60;75.40;;;;;;954591;148;27386;-74
2023/08/12 01:16:12;;;;;;;2.33;2.20;;;22.50;75.60;;;;;;951691;148;27419;-74
2023/08/12 01:18:39;;;;;;;2.33;2.12;;;22.50;75.80;;;;;;953280;148;27312;-74
2023/08/12 01:21:05;;;;;;;3.08;2.52;;;22.50;76.10;;;;;;953725;148;27225;-74
2023/08/12 01:23:32;;;;;;;2.87;2.52;;;22.50;76.30;;;;;;935087;151;27454;-74
2023/08/12 01:25:59;;;;;;;2.42;2.22;;;22.50;76.60;;;;;;946203;148;27308;-74
2023/08/12 01:28:25;;;;;;;2.27;2.15;;;22.60;76.60;;;;;;932803;151;27403;-74
2023/08/12 01:30:58;;;;;;;2.40;2.20;;;22.60;76.80;;;;;;947047;148;27313;-74
2023/08/12 01:33:36;;;;;;;2.85;2.50;;;22.60;76.90;;;;;;935205;150;27501;-74
2023/08/12 01:36:06;;;;;;;2.10;2.00;;;22.60;77.10;;;;;;936033;150;27316;-74
2023/08/12 01:38:32;;;;;;;4.72;2.20;;;22.60;77.10;;;;;;944530;148;27445;-74
2023/08/12 01:40:59;;;;;;;2.37;2.17;;;22.60;77.20;;;;;;947236;148;27316;-74
2023/08/12 01:43:25;;;;;;;5.05;2.42;;;22.60;77.50;;;;;;947090;148;27410;-74
2023/08/12 01:45:52;;;;;;;2.70;2.50;;;22.60;77.70;;;;;;946990;148;27740;-74
2023/08/12 01:48:22;;;;;;;2.50;2.30;;;22.60;77.80;;;;;;947235;148;28165;-74
2023/08/12 01:50:47;;;;;;;2.72;2.35;;;22.60;78.10;;;;;;947477;148;27426;-74
2023/08/12 01:53:12;;;;;;;3.08;2.00;;;22.60;78.00;;;;;;946984;148;27428;-74
2023/08/12 01:55:38;;;;;;;4.20;2.60;;;22.70;78.20;;;;;;950367;148;27355;-74
2023/08/12 01:58:05;;;;;;;2.33;2.12;;;22.70;78.20;;;;;;943614;150;28313;-74
2023/08/12 02:00:32;;;;;;;2.40;2.20;;;22.70;78.50;;;;;;937674;151;27433;-74
2023/08/12 02:02:58;;;;;;;2.40;2.30;;;22.80;78.60;;;;;;937018;151;27775;-74
2023/08/12 02:05:25;;;;;;;3.02;1.98;;;22.70;78.50;;;;;;947901;148;27358;-74
2023/08/12 02:07:51;;;;;;;2.42;2.08;;;22.80;78.90;;;;;;946031;148;27452;-74
2023/08/12 02:10:18;;;;;;;2.52;2.33;;;22.80;78.90;;;;;;931643;151;27316;-74
2023/08/12 02:12:44;;;;;;;2.30;2.10;;;22.80;78.90;;;;;;936619;150;27341;-74
2023/08/12 02:15:11;;;;;;;3.05;2.20;;;22.80;78.90;;;;;;952704;148;27320;-74
2023/08/12 02:17:38;;;;;;;2.10;2.00;;;22.80;78.80;;;;;;949190;146;27364;-74
2023/08/12 02:20:04;;;;;;;2.52;2.33;;;22.80;78.90;;;;;;948177;148;28061;-74
2023/08/12 02:22:31;;;;;;;2.25;1.87;;;22.80;78.80;;;;;;953178;148;27334;-74
2023/08/12 02:24:57;;;;;;;3.27;2.20;;;22.90;78.90;;;;;;948310;148;27325;-74
2023/08/12 02:27:24;;;;;;;2.62;2.17;;;22.90;78.90;;;;;;946598;148;27363;-74
2023/08/12 02:29:51;;;;;;;2.40;2.20;;;22.90;79.10;;;;;;948382;148;27355;-74
2023/08/12 02:32:17;;;;;;;2.17;2.02;;;22.90;79.20;;;;;;946749;148;27313;-74
2023/08/12 02:34:44;;;;;;;2.55;2.35;;;22.90;79.30;;;;;;946886;148;27323;-74
2023/08/12 02:37:12;;;;;;;2.83;2.00;;;22.90;79.50;;;;;;947786;148;27920;-74
2023/08/12 02:39:37;;;;;;;2.42;2.25;;;22.90;79.10;;;;;;945804;148;27369;-74
2023/08/12 02:42:04;;;;;;;2.72;2.15;;;22.90;80.00;;;;;;946796;148;27805;-74
2023/08/12 02:44:30;;;;;;;2.92;2.42;;;22.90;80.30;;;;;;942945;148;27302;-74
2023/08/12 02:46:57;;;;;;;2.62;2.42;;;22.90;80.70;;;;;;943181;149;27309;-74
2023/08/12 02:49:23;;;;;;;2.65;2.45;;;22.90;81.60;;;;;;937225;149;27397;-74
2023/08/12 02:51:50;;;;;;;2.47;2.27;;;23.00;81.90;;;;;;940432;149;27362;-74
2023/08/12 02:54:17;;;;;;;2.45;2.25;;;23.00;82.10;;;;;;935340;150;27414;-74
2023/08/12 02:56:43;;;;;;;2.50;2.12;;;23.00;82.30;;;;;;933682;149;27322;-74
2023/08/12 02:59:10;;;;;;;5.60;2.98;;;23.00;82.70;;;;;;933485;149;27433;-74
2023/08/12 03:01:36;;;;;;;3.30;2.27;;;23.00;83.20;;;;;;916610;153;27432;-74
2023/08/12 03:04:03;;;;;;;2.75;2.55;;;23.00;83.60;;;;;;934315;150;27396;-74
2023/08/12 03:06:29;;;;;;;2.55;2.35;;;23.00;83.90;;;;;;939713;149;27348;-74
2023/08/12 03:08:56;;;;;;;3.85;2.33;;;23.00;84.50;;;;;;940718;149;27293;-74
2023/08/12 03:11:23;;;;;;;2.65;2.45;;;23.00;85.30;;;;;;939616;149;27293;-74
2023/08/12 03:13:49;;;;;;;2.95;2.58;;;23.00;86.10;;;;;;938358;149;27840;-74
2023/08/12 03:16:16;;;;;;;2.60;2.40;;;23.00;86.30;;;;;;933919;149;27402;-74
2023/08/12 03:18:42;;;;;;;3.20;2.77;;;23.00;86.60;;;;;;941701;149;27361;-74
2023/08/12 03:21:09;;;;;;;6.72;2.80;;;22.90;86.70;;;;;;941808;149;27441;-74
2023/08/12 03:23:36;;;;;;;2.55;2.35;;;22.90;87.10;;;;;;939291;149;27416;-74
2023/08/12 03:26:02;;;;;;;3.62;2.62;;;22.90;86.90;;;;;;936984;149;27381;-74
2023/08/12 03:28:29;;;;;;;2.90;2.70;;;22.90;87.50;;;;;;918017;153;27437;-74
2023/08/12 03:30:55;;;;;;;3.90;2.70;;;22.90;87.80;;;;;;923447;152;27339;-74
2023/08/12 03:33:22;;;;;;;2.85;2.65;;;22.80;88.90;;;;;;934582;149;27318;-74
2023/08/12 03:35:49;;;;;;;5.42;2.92;;;22.80;89.60;;;;;;936133;148;27455;-74
2023/08/12 03:38:15;;;;;;;3.08;2.87;;;22.80;90.00;;;;;;936199;149;27359;-74
2023/08/12 03:40:42;;;;;;;7.85;3.02;;;22.80;90.10;;;;;;940899;149;27339;-74
2023/08/12 03:43:08;;;;;;;4.45;3.08;;;22.70;90.40;;;;;;941027;148;27301;-74
2023/08/12 03:45:44;;;;;;;3.42;2.65;;;22.70;90.70;;;;;;937418;151;27411;-74
2023/08/12 03:48:10;;;;;;;2.85;2.65;;;22.70;91.00;;;;;;930113;150;27385;-74
2023/08/12 03:50:37;;;;;;;3.62;2.55;;;22.60;91.30;;;;;;938542;150;27441;-74
2023/08/12 03:53:04;;;;;;;3.30;3.00;;;22.60;91.70;;;;;;936886;151;27349;-74
2023/08/12 03:55:33;;;;;;;3.37;3.00;;;22.60;92.00;;;;;;929505;150;27333;-74
2023/08/12 03:57:59;;;;;;;2.83;2.60;;;22.50;92.30;;;;;;947267;148;27451;-74
2023/08/12 04:00:26;;;;;;;3.15;2.95;;;22.50;92.70;;;;;;936666;150;27436;-74
2023/08/12 04:02:53;;;;;;;3.05;2.58;;;22.50;92.90;;;;;;951587;148;27382;-74
2023/08/12 04:05:19;;;;;;;3.30;3.00;;;22.40;93.70;;;;;;953649;148;27367;-74
2023/08/12 04:07:46;;;;;;;3.85;3.00;;;22.40;93.60;;;;;;935915;151;27492;-74
2023/08/12 04:10:12;;;;;;;2.92;2.62;;;22.40;94.00;;;;;;929139;150;27381;-74
2023/08/12 04:12:39;;;;;;;3.15;2.90;;;22.40;94.10;;;;;;930468;151;27356;-74
2023/08/12 04:15:06;;;;;;;2.87;2.67;;;22.30;94.10;;;;;;953711;148;27440;-74
2023/08/12 04:17:32;;;;;;;4.72;3.22;;;22.40;94.50;;;;;;936255;151;27359;-74
2023/08/12 04:19:59;;;;;;;2.98;2.35;;;22.30;94.80;;;;;;930371;151;27463;-74
2023/08/12 04:22:26;;;;;;;3.85;2.90;;;22.30;95.10;;;;;;932052;151;27379;-74
2023/08/12 04:24:52;;;;;;;4.25;2.60;;;22.30;95.30;;;;;;947354;148;27344;-74
2023/08/12 04:27:19;;;;;;;3.37;2.67;;;22.30;95.60;;;;;;947572;148;27279;-74
2023/08/12 04:29:45;;;;;;;3.60;3.10;;;22.20;95.80;;;;;;954449;148;27403;-74
2023/08/12 04:32:12;;;;;;;6.65;3.17;;;22.20;96.10;;;;;;946489;148;27383;-74
2023/08/12 04:34:38;;;;;;;3.85;3.05;;;22.20;96.30;;;;;;938627;150;27322;-74
2023/08/12 04:37:05;;;;;;;6.33;3.37;;;22.20;96.50;;;;;;940374;151;27279;-74
2023/08/12 04:39:32;;;;;;;6.45;4.80;;;22.20;97.10;;;;;;937658;150;27313;-73
2023/08/12 04:41:58;;;;;;;5.72;4.37;;;22.20;97.40;;;;;;950663;148;27379;-73
2023/08/12 04:44:25;;;;;;;3.75;3.45;;;22.20;97.60;;;;;;943561;148;27968;-73
2023/08/12 04:46:51;;;;;;;3.77;3.45;;;22.20;97.70;;;;;;922143;152;27296;-73
2023/08/12 04:49:18;;;;;;;3.67;3.37;;;22.10;98.00;;;;;;919844;152;27346;-73
2023/08/12 04:51:44;;;;;;;4.33;3.62;;;22.10;98.00;;;;;;936788;149;27350;-74
2023/08/12 04:54:11;;;;;;;4.67;3.55;;;22.20;98.10;;;;;;917150;152;27389;-73
2023/08/12 04:56:38;;;;;;;5.53;3.47;;;22.10;98.20;;;;;;940048;150;28383;-73
2023/08/12 04:59:04;;;;;;;3.55;3.17;;;22.10;98.40;;;;;;933644;150;27447;-73
2023/08/12 05:01:31;;;;;;;3.80;3.02;;;22.10;98.60;;;;;;939429;149;28214;-73
2023/08/12 05:03:57;;;;;;;5.80;3.27;;;22.10;98.70;;;;;;937688;150;27279;-74
2023/08/12 05:06:24;;;;;;;3.60;3.17;;;22.10;98.80;;;;;;936425;151;27368;-74
2023/08/12 05:08:51;;;;;;;3.75;2.75;;;22.10;99.00;;;;;;934376;150;27407;-73
2023/08/12 05:11:17;;;;;;;5.05;2.90;;;22.20;99.10;;;;;;934037;151;27295;-74
2023/08/12 05:13:44;;;;;;;3.52;3.22;;;22.10;99.00;;;;;;936376;149;27322;-74
2023/08/12 05:16:10;;;;;;;3.65;3.35;;;22.10;99.00;;;;;;917940;153;27389;-73
2023/08/12 05:18:37;;;;;;;4.17;3.77;;;22.10;99.10;;;;;;927282;152;27402;-73
2023/08/12 05:21:03;;;;;;;3.40;3.15;;;22.10;99.20;;;;;;935069;150;27290;-73
2023/08/12 05:23:30;;;;;;;3.77;3.47;;;22.10;99.20;;;;;;936458;149;27960;-74
2023/08/12 05:25:57;;;;;;;4.95;3.70;;;22.10;99.40;;;;;;937835;149;27286;-73
2023/08/12 05:28:23;;;;;;;3.17;2.85;;;22.10;99.40;;;;;;933478;151;27480;-74
2023/08/12 05:30:50;;;;;;;4.78;3.80;;;22.10;99.60;;;;;;934849;149;27299;-73
2023/08/12 05:33:16;;;;;;;4.17;3.45;;;22.10;99.80;;;;;;937159;149;27347;-74
2023/08/12 05:35:43;;;;;;;4.08;3.62;;;22.20;99.90;;;;;;934895;149;27358;-73
2023/08/12 05:38:10;;;;;;;4.62;3.45;;;22.20;99.90;;;;;;918948;153;27435;-74
2023/08/12 05:40:36;;;;;;;4.03;3.22;;;22.20;99.90;;;;;;918340;153;27478;-73
2023/08/12 05:43:03;;;;;;;3.42;3.12;;;22.30;99.90;;;;;;939813;149;27383;-74
2023/08/12 05:45:30;;;;;;;6.22;3.67;;;22.40;99.90;;;;;;931831;151;27403;-74
2023/08/12 05:47:56;;;;;;;4.37;3.70;;;22.50;99.90;;;;;;932558;152;27398;-74
2023/08/12 05:50:23;;;;;;;3.45;3.10;;;22.60;99.90;;;;;;930167;152;27371;-75
2023/08/12 05:52:49;;;;;;;3.95;3.65;;;22.70;99.90;;;;;;929260;152;27449;-75
2023/08/12 05:55:16;;;;;;;3.80;3.10;;;22.80;99.90;;;;;;937531;149;27443;-75
2023/08/12 05:57:42;;;;;;;3.58;3.27;;;23.00;99.90;;;;;;937811;150;27301;-75
2023/08/12 06:00:09;;;;;;;3.35;3.05;;;23.10;99.90;;;;;;937544;150;27383;-75
2023/08/12 06:02:36;;;;;;;4.05;3.02;;;23.20;99.90;;;;;;938282;150;27764;-75
2023/08/12 06:05:02;;;;;;;3.20;3.00;;;23.30;99.90;;;;;;937778;150;27348;-75
2023/08/12 06:07:29;;;;;;;5.92;3.30;;;23.40;99.90;;;;;;937501;150;27287;-75
2023/08/12 06:09:55;;;;;;;3.80;3.22;;;23.50;99.90;;;;;;938017;150;27430;-75
2023/08/12 06:12:22;;;;;;;7.42;3.55;;;23.70;99.90;;;;;;937728;150;27355;-75
2023/08/12 06:14:48;;;;;;;3.65;3.35;;;23.90;99.90;;;;;;916485;152;28454;-75
2023/08/12 06:17:15;;;;;;;3.87;3.58;;;24.10;99.90;;;;;;925468;153;27318;-75
2023/08/12 06:19:42;;;;;;;4.45;3.33;;;24.40;99.90;;;;;;934379;151;27248;-75
2023/08/12 06:22:08;;;;;;;3.65;3.40;;;24.80;99.90;;;;;;938221;149;27379;-75
2023/08/12 06:24:35;;;;;;;3.27;3.08;;;25.20;99.90;;;;;;938752;150;27365;-75
2023/08/12 06:27:01;;;;;;;4.10;3.37;;;25.90;99.90;;;;;;931261;152;27384;-76
2023/08/12 06:29:28;;;;;;;3.67;3.37;;;26.60;99.90;;;;;;936718;150;27300;-75
2023/08/12 06:31:55;;;;;;;4.28;3.52;;;27.40;99.90;;;;;;938068;149;27415;-76
2023/08/12 06:34:21;;;;;;;5.22;3.02;;;28.00;96.10;;;;;;938909;150;27429;-76
2023/08/12 06:36:48;;;;;;;6.35;2.98;;;28.60;92.80;;;;;;943664;150;27376;-75
2023/08/12 06:39:14;;;;;;;3.55;3.25;;;28.90;90.40;;;;;;914540;154;27274;-75
2023/08/12 06:41:41;;;;;;;3.15;2.95;;;29.20;88.10;;;;;;938172;151;27403;-75
2023/08/12 06:44:08;;;;;;;3.12;2.92;;;29.60;88.30;;;;;;927561;152;27418;-76
2023/08/12 06:46:34;;;;;;;3.62;3.12;;;30.00;88.50;;;;;;933177;150;27386;-75
2023/08/12 06:49:01;;;;;;;3.00;2.70;;;30.50;87.90;;;;;;933555;151;27428;-76
2023/08/12 06:51:27;;;;;;;3.37;3.08;;;31.10;84.20;;;;;;946959;148;27334;-76
2023/08/12 06:53:54;;;;;;;3.25;2.95;;;31.60;79.70;;;;;;946539;148;27278;-76
2023/08/12 06:56:21;;;;;;;4.40;3.10;;;32.10;75.40;;;;;;947139;148;27361;-76
2023/08/12 06:58:47;;;;;;;5.22;3.08;;;32.40;71.80;;;;;;947484;148;27397;-76
2023/08/12 07:01:14;;;;;;;3.20;2.92;;;32.50;69.20;;;;;;946777;148;27346;-75
2023/08/12 07:03:40;;;;;;;3.27;3.08;;;32.50;67.80;;;;;;946416;148;27449;-75
2023/08/12 07:06:07;;;;;;;3.30;3.00;;;32.40;66.80;;;;;;946782;148;27419;-75
2023/08/12 07:08:33;;;;;;;5.30;3.10;;;32.30;66.40;;;;;;934351;150;27489;-74
2023/08/12 07:11:00;;;;;;;4.12;3.80;;;32.20;66.40;;;;;;933390;151;27409;-75
2023/08/12 07:13:27;;;;;;;3.35;3.05;;;32.10;66.00;;;;;;935509;151;27347;-74
2023/08/12 07:15:53;;;;;;;3.47;3.17;;;32.00;65.80;;;;;;931164;151;27337;-75
2023/08/12 07:18:20;;;;;;;3.80;3.50;;;31.80;65.60;;;;;;951260;148;27325;-76
2023/08/12 07:20:47;;;;;;;4.97;3.17;;;31.80;65.40;;;;;;936650;150;28201;-75
2023/08/12 07:23:13;;;;;;;3.47;3.20;;;31.60;65.70;;;;;;929527;151;27326;-75
2023/08/12 07:25:40;;;;;;;3.65;3.35;;;31.60;66.00;;;;;;954841;148;27331;-76
2023/08/12 07:28:07;;;;;;;3.27;3.05;;;31.70;67.20;;;;;;952843;148;27346;-75
2023/08/12 07:30:33;;;;;;;3.15;2.90;;;31.90;68.50;;;;;;935349;151;26275;-75
2023/08/12 07:32:59;;;;;;;3.77;3.50;;;32.20;68.40;;;;;;930893;151;27398;-75
2023/08/12 07:35:26;;;;;;;3.40;3.10;;;32.60;67.60;;;;;;934687;150;27313;-74
2023/08/12 07:37:53;;;;;;;3.08;2.87;;;33.00;66.50;;;;;;935702;151;26265;-75
2023/08/12 07:40:19;;;;;;;3.45;3.15;;;33.40;66.20;;;;;;930224;150;27456;-75
2023/08/12 07:42:46;;;;;;;3.35;3.05;;;33.90;65.90;;;;;;948569;148;26251;-75
2023/08/12 07:45:13;;;;;;;4.17;3.15;;;34.30;64.40;;;;;;950666;148;26255;-75
2023/08/12 07:47:39;;;;;;;4.33;3.12;;;34.60;62.50;;;;;;939346;150;26322;-75
2023/08/12 07:50:06;;;;;;;3.52;3.22;;;34.90;61.10;;;;;;958982;147;27430;-75
2023/08/12 07:52:32;;;;;;;2.85;2.65;;;35.10;60.60;;;;;;947361;150;26261;-75
2023/08/12 07:54:59;;;;;;;4.83;2.77;;;35.20;60.00;;;;;;945228;150;26816;-75
2023/08/12 07:57:26;;;;;;;2.83;2.62;;;35.40;59.80;;;;;;939722;150;27746;-75
2023/08/12 07:59:52;;;;;;;4.50;3.00;;;35.50;59.00;;;;;;954874;148;26302;-75
2023/08/12 08:02:19;;;;;;;3.30;3.00;;;35.60;58.60;;;;;;938839;150;27386;-75
2023/08/12 08:04:48;;;;;;;2.72;2.52;;;35.70;58.70;;;;;;936042;150;26291;-75
2023/08/12 08:07:12;;;;;;;3.20;3.00;;;36.00;58.70;;;;;;939630;150;26464;-75
2023/08/12 08:09:38;;;;;;;6.22;2.80;;;36.30;58.80;;;;;;956187;147;26401;-75
2023/08/12 08:12:05;;;;;;;3.08;2.87;;;36.60;58.70;;;;;;957832;147;26187;-75
2023/08/12 08:14:32;;;;;;;6.15;3.40;;;37.10;58.00;;;;;;957253;147;26247;-75
2023/08/12 08:16:58;;;;;;;3.62;3.25;;;37.50;57.20;;;;;;960494;147;26251;-75
2023/08/12 08:19:25;;;;;;;2.83;2.62;;;37.80;55.90;;;;;;958408;147;26401;-75
2023/08/12 08:21:51;;;;;;;3.05;2.72;;;37.90;54.70;;;;;;956789;147;26411;-75
2023/08/12 08:24:18;;;;;;;3.02;2.83;;;38.00;54.00;;;;;;939859;150;26663;-75
2023/08/12 08:26:48;;;;;;;3.30;3.00;;;38.10;54.10;;;;;;955565;148;26364;-75
2023/08/12 08:29:11;;;;;;;3.05;2.77;;;38.10;54.00;;;;;;951288;148;26687;-75
2023/08/12 08:31:38;;;;;;;2.98;2.70;;;38.10;54.60;;;;;;952104;148;27856;-76
2023/08/12 08:34:04;;;;;;;3.95;3.20;;;38.00;53.90;;;;;;952050;147;26241;-75
2023/08/12 08:36:31;;;;;;;4.72;2.90;;;37.80;53.70;;;;;;952479;147;27926;-76
2023/08/12 08:38:58;;;;;;;3.02;2.83;;;37.50;53.30;;;;;;942326;150;26262;-75
2023/08/12 08:41:24;;;;;;;2.58;2.42;;;37.20;53.00;;;;;;938245;150;26418;-75
2023/08/12 08:43:51;;;;;;;2.90;2.60;;;36.90;52.90;;;;;;949777;148;26260;-75
2023/08/12 08:46:17;;;;;;;3.20;2.98;;;36.60;52.80;;;;;;949624;148;26263;-75
2023/08/12 08:48:44;;;;;;;3.25;2.85;;;36.30;52.70;;;;;;948978;148;27512;-75
2023/08/12 08:51:10;;;;;;;3.72;3.35;;;36.10;53.20;;;;;;949344;148;26361;-75
2023/08/12 08:53:40;;;;;;;2.87;2.58;;;35.90;53.60;;;;;;947495;148;26211;-75
2023/08/12 08:56:06;;;;;;;3.08;2.87;;;35.80;53.70;;;;;;948420;148;27309;-75
2023/08/12 08:58:33;;;;;;;3.83;3.08;;;35.80;53.70;;;;;;950555;148;26279;-75
2023/08/12 09:01:00;;;;;;;2.92;2.72;;;35.70;53.60;;;;;;949209;148;27474;-75
2023/08/12 09:03:26;;;;;;;3.55;3.25;;;35.70;53.70;;;;;;928764;150;26336;-75
2023/08/12 09:05:53;;;;;;;4.10;3.12;;;35.70;53.90;;;;;;950852;148;26268;-74
2023/08/12 09:08:19;;;;;;;2.92;2.72;;;35.80;54.40;;;;;;926252;151;26246;-75
2023/08/12 09:10:46;;;;;;;3.30;3.10;;;36.00;54.90;;;;;;931863;151;26397;-75
2023/08/12 09:13:14;;;;;;;3.27;2.95;;;36.30;54.90;;;;;;950461;148;26361;-75
2023/08/12 09:15:39;;;;;;;3.20;3.00;;;36.60;54.70;;;;;;931832;151;26292;-75
2023/08/12 09:18:06;;;;;;;4.05;2.95;;;37.00;54.50;;;;;;931953;151;26341;-75
2023/08/12 09:20:35;;;;;;;4.75;2.92;;;37.60;54.60;;;;;;944644;150;26232;-76
2023/08/12 09:23:02;;;;;;;2.90;2.70;;;38.20;54.40;;;;;;935173;150;26286;-74
2023/08/12 09:25:29;;;;;;;3.05;2.75;;;38.80;53.80;;;;;;930978;151;26284;-75
2023/08/12 09:27:55;;;;;;;3.20;2.90;;;39.50;52.60;;;;;;948133;148;26210;-75
2023/08/12 09:30:22;;;;;;;2.92;2.72;;;40.10;51.40;;;;;;937892;150;26337;-75
2023/08/12 09:33:00;;;;;;;3.92;3.10;;;40.50;50.60;;;;;;933431;151;27447;-75
2023/08/12 09:35:26;;;;;;;4.20;2.75;;;41.00;50.30;;;;;;946766;148;26190;-74
2023/08/12 09:37:53;;;;;;;2.85;2.65;;;41.60;49.90;;;;;;936462;150;26333;-75
2023/08/12 09:40:19;;;;;;;3.45;3.15;;;41.90;49.00;;;;;;932325;151;26263;-75
2023/08/12 09:42:46;;;;;;;3.17;2.92;;;42.20;47.70;;;;;;931245;151;26422;-75
2023/08/12 09:45:12;;;;;;;3.40;3.10;;;42.30;46.50;;;;;;927245;151;26314;-75
2023/08/12 09:47:41;;;;;;;3.02;2.83;;;42.10;45.70;;;;;;946908;148;26293;-75
2023/08/12 09:50:06;;;;;;;3.10;2.90;;;41.80;45.40;;;;;;945894;148;26212;-76
2023/08/12 09:52:32;;;;;;;3.25;2.95;;;41.40;45.40;;;;;;942384;149;26330;-74
2023/08/12 09:54:59;;;;;;;3.33;3.02;;;40.90;45.60;;;;;;950788;148;26243;-75
2023/08/12 09:57:25;;;;;;;2.98;2.77;;;40.60;46.10;;;;;;949028;148;26336;-74
2023/08/12 09:59:53;;;;;;;3.85;2.70;;;40.30;46.70;;;;;;954314;148;26294;-75
2023/08/12 10:02:19;;;;;;;2.75;2.55;;;40.20;47.50;;;;;;953875;148;26269;-75
2023/08/12 10:04:45;;;;;;;3.80;3.30;;;40.20;47.60;;;;;;946702;148;27952;-75
2023/08/12 10:07:15;;;;;;;3.50;3.20;;;40.10;47.10;;;;;;947645;148;26228;-74
2023/08/12 10:09:41;;;;;;;3.35;3.05;;;40.00;46.60;;;;;;947883;148;26281;-75
2023/08/12 10:12:08;;;;;;;3.52;3.22;;;39.90;46.50;;;;;;947148;148;26295;-74
2023/08/12 10:14:34;;;;;;;3.33;3.12;;;39.80;46.70;;;;;;948556;148;26243;-74
2023/08/12 10:17:01;;;;;;;3.70;3.40;;;39.60;46.60;;;;;;932042;151;26277;-75
2023/08/12 10:19:28;;;;;;;3.40;3.20;;;39.40;46.90;;;;;;952576;148;26252;-74
2023/08/12 10:21:54;;;;;;;3.25;3.05;;;39.30;47.00;;;;;;949349;148;27288;-75
2023/08/12 10:24:21;;;;;;;3.02;2.83;;;39.20;47.10;;;;;;953121;148;26372;-75
2023/08/12 10:26:47;;;;;;;3.10;2.90;;;39.10;47.00;;;;;;951428;148;26216;-74
2023/08/12 10:29:14;;;;;;;3.50;3.20;;;38.90;46.90;;;;;;953404;148;26331;-75
2023/08/12 10:31:44;;;;;;;3.40;3.10;;;38.80;47.00;;;;;;948233;148;26161;-75
2023/08/12 10:34:07;;;;;;;3.33;3.02;;;38.60;47.10;;;;;;947711;148;26272;-75
2023/08/12 10:36:34;;;;;;;3.45;3.15;;;38.40;47.40;;;;;;935897;151;27451;-75
2023/08/12 10:39:03;;;;;;;3.30;2.87;;;38.10;47.10;;;;;;932759;151;27507;-75
2023/08/12 10:41:30;;;;;;;3.55;2.95;;;37.80;47.30;;;;;;929136;151;26316;-75
2023/08/12 10:43:56;;;;;;;6.03;3.30;;;37.40;47.60;;;;;;947156;148;26278;-75
2023/08/12 10:46:29;;;;;;;2.92;2.72;;;37.10;47.40;;;;;;946341;148;26366;-75
2023/08/12 10:48:59;;;;;;;2.90;2.70;;;36.60;47.90;;;;;;931112;150;27547;-76
2023/08/12 10:51:40;;;;;;;3.37;3.05;;;36.20;48.10;;;;;;911387;153;27382;-76
2023/08/12 10:54:18;;;;;;;3.40;2.80;;;35.70;49.30;;;;;;935180;149;27412;-76
2023/08/12 10:57:04;;;;;;;5.65;2.95;;;35.10;49.80;;;;;;936395;149;27466;-75
2023/08/12 10:59:45;;;;;;;4.45;2.83;;;34.40;50.20;;;;;;925997;152;27523;-76
2023/08/12 11:02:18;;;;;;;3.40;3.10;;;33.60;51.10;;;;;;922988;152;27401;-77
2023/08/12 11:04:44;;;;;;;3.12;2.40;;;32.70;52.00;;;;;;935514;149;27313;-76
2023/08/12 11:07:33;;;;;;;3.15;2.40;;;32.00;53.00;;;;;;936297;150;27296;-75
2023/08/12 11:10:12;;;;;;;3.05;1.90;;;31.30;54.10;;;;;;924001;152;27441;-75
2023/08/12 11:12:37;;;;;;;1.98;1.67;;;30.60;54.80;;;;;;915194;153;27466;-75
2023/08/12 11:15:07;;;;;;;2.12;1.70;;;30.00;55.70;;;;;;932005;150;27376;-75
2023/08/12 11:17:42;;;;;;;1.60;1.50;;;29.60;56.90;;;;;;939090;149;27416;-76
2023/08/12 11:20:09;;;;;;;1.65;1.55;;;29.20;57.90;;;;;;935656;150;27474;-76
2023/08/12 11:22:36;;;;;;;1.82;1.72;;;28.80;58.70;;;;;;938134;150;27393;-76
2023/08/12 11:25:02;;;;;;;1.75;1.65;;;28.60;59.60;;;;;;937596;150;27298;-76
2023/08/12 11:27:28;;;;;;;3.50;2.37;;;28.40;60.30;;;;;;937184;149;27386;-76
2023/08/12 11:29:55;;;;;;;2.95;2.47;;;28.20;61.00;;;;;;915261;152;27384;-76
2023/08/12 11:32:22;;;;;;;2.37;2.15;;;28.00;61.80;;;;;;925659;152;27480;-76
2023/08/12 11:34:48;;;;;;;2.67;2.35;;;27.90;62.20;;;;;;914144;153;27464;-76
2023/08/12 11:37:15;;;;;;;4.50;2.90;;;27.70;62.80;;;;;;928736;151;27395;-76
2023/08/12 11:39:41;;;;;;;2.85;2.65;;;27.60;63.40;;;;;;935824;150;27413;-75
2023/08/12 11:42:08;;;;;;;3.67;2.85;;;27.40;63.80;;;;;;934885;149;27390;-76
2023/08/12 11:44:35;;;;;;;4.03;2.90;;;27.30;64.30;;;;;;939351;149;27447;-75
2023/08/12 11:47:01;;;;;;;2.95;2.65;;;27.20;64.70;;;;;;942025;149;28354;-75
2023/08/12 11:49:28;;;;;;;2.98;2.67;;;27.00;65.10;;;;;;945664;148;27381;-75
2023/08/12 11:51:54;;;;;;;3.00;2.70;;;26.90;65.40;;;;;;951210;148;27308;-75
2023/08/12 11:54:21;;;;;;;3.08;2.60;;;26.80;65.70;;;;;;949468;148;27355;-76
2023/08/12 11:56:48;;;;;;;2.85;2.65;;;26.60;66.20;;;;;;948536;148;27773;-75
2023/08/12 11:59:14;;;;;;;2.83;2.62;;;26.50;66.80;;;;;;944942;148;27441;-76
2023/08/12 12:01:41;;;;;;;2.65;2.27;;;26.30;67.20;;;;;;948501;148;28094;-74
2023/08/12 12:04:07;;;;;;;3.17;2.83;;;26.20;67.80;;;;;;948596;148;27306;-76
2023/08/12 12:06:34;;;;;;;4.42;2.80;;;26.10;68.10;;;;;;949400;148;27338;-76
2023/08/12 12:09:04;;;;;;;4.05;2.50;;;26.00;68.40;;;;;;948608;148;27434;-75
2023/08/12 12:11:27;;;;;;;3.95;2.85;;;25.90;68.80;;;;;;951268;148;27264;-75
2023/08/12 12:13:54;;;;;;;3.58;3.20;;;25.70;69.30;;;;;;954421;148;27390;-75
2023/08/12 12:16:20;;;;;;;3.10;2.90;;;25.60;69.80;;;;;;945532;151;27376;-75
2023/08/12 12:18:47;;;;;;;3.15;2.85;;;25.60;70.10;;;;;;948245;148;27421;-74
2023/08/12 12:21:13;;;;;;;3.20;2.87;;;25.50;70.50;;;;;;956792;148;27385;-74
2023/08/12 12:23:40;;;;;;;3.30;2.33;;;25.40;70.80;;;;;;946746;148;27840;-75
2023/08/12 12:26:07;;;;;;;2.30;2.10;;;25.30;71.20;;;;;;933284;151;27339;-75
2023/08/12 12:28:33;;;;;;;2.58;2.37;;;25.20;71.50;;;;;;947768;148;27367;-75
2023/08/12 12:31:00;;;;;;;2.45;2.25;;;25.10;72.00;;;;;;948330;148;27328;-75
2023/08/12 12:33:27;;;;;;;3.45;2.20;;;25.00;72.40;;;;;;948469;148;27783;-74
2023/08/12 12:35:53;;;;;;;2.72;1.77;;;24.90;72.90;;;;;;947838;148;27326;-75
2023/08/12 12:38:20;;;;;;;2.35;2.20;;;24.80;73.20;;;;;;949276;148;27432;-74
2023/08/12 12:40:46;;;;;;;2.00;1.80;;;24.80;73.70;;;;;;946639;148;27462;-74
2023/08/12 12:43:13;;;;;;;2.60;2.40;;;24.70;74.30;;;;;;932622;151;27342;-75
2023/08/12 12:45:39;;;;;;;2.45;2.25;;;24.70;75.00;;;;;;949583;148;27343;-75